Home   Weather   Ransberg   Past weeks
Flag for Belgium

Past Weather in Ransberg, Belgium — Yesterday and Last 2 Weeks

Currently: 64 °F. Sunny. (Weather station: Brussels National Airport, Belgium). See more current weather

Past Weather in Ransberg — Graph

°F

Ransberg Temperature Yesterday

Maximum temperature yesterday: 77 °F (at 4:50 pm)
Minimum temperature yesterday: 52 °F (at 5:20 am)
Average temperature yesterday: 65 °F

High & Low Weather Summary for the Past Weeks

 TemperatureHumidityPressure
High81 °F (Jul 18, 3:20 pm)100% (Jul 13, 1:20 am)30.33 "Hg (Jul 13, 1:20 am)
Low52 °F (Jul 11, 5:20 am)15% (Jul 17, 4:20 pm)29.77 "Hg (Jul 24, 7:20 am)
Average64 °F79%30.08 "Hg
* Reported Jul 9 8:20 am — Jul 24 8:50 am, Ransberg. Weather by CustomWeather, © 2021

Note: Actual official high and low records may vary slightly from our data, if they occured in-between our weather recording intervals... More about our weather records

Ransberg Weather History for the Previous 24 Hours

Scroll right to see more
 ConditionsComfort  
Time TempWeatherWind HumidityBarometerVisibility
8:50 am
Sat, Jul 24
64 °FSunny.3 mph83%29.77 "Hg10 mi
8:20 am63 °FSunny.1 mph83%29.77 "Hg10 mi
7:50 am61 °FPassing clouds.5 mph88%29.77 "HgN/A
7:20 am61 °FSunny.7 mph83%29.77 "Hg10 mi
6:50 am59 °FSunny.5 mph88%29.80 "Hg10 mi
6:20 am59 °FSunny.6 mph88%29.83 "Hg10 mi
5:50 am57 °FClear.1 mph94%29.80 "Hg10 mi
5:20 am57 °FClear.1 mph94%29.80 "Hg10 mi
4:50 am59 °FClear.3 mph88%29.80 "Hg10 mi
4:20 am61 °FClear.5 mph83%29.80 "Hg10 mi
3:50 am61 °FPassing clouds.6 mph83%29.83 "HgN/A
3:20 am59 °FClear.5 mph88%29.83 "Hg10 mi
2:50 am59 °FClear.6 mph88%29.86 "Hg10 mi
2:20 am61 °FClear.2 mph88%29.89 "Hg10 mi
1:50 am61 °FClear.1 mph83%29.89 "Hg10 mi
1:20 am63 °FClear.2 mph83%29.89 "Hg10 mi
12:50 am63 °FClear.5 mph83%29.89 "Hg10 mi
12:20 am63 °FClear.5 mph83%29.89 "Hg10 mi
11:50 pm
Fri, Jul 23
64 °FClear.6 mph78%29.89 "Hg10 mi
11:20 pm64 °FClear.5 mph73%29.89 "Hg10 mi
10:50 pm64 °FClear.5 mph68%29.89 "Hg10 mi
10:20 pm64 °FClear.6 mph73%29.89 "Hg10 mi
9:50 pm66 °FClear.5 mph64%29.92 "Hg10 mi
9:20 pm68 °FSunny.5 mph60%29.89 "Hg10 mi
8:50 pm70 °FSunny.6 mph57%29.92 "Hg10 mi
8:20 pm72 °FPassing clouds.6 mph50%29.92 "HgN/A
7:50 pm72 °FSunny.6 mph50%29.92 "Hg10 mi
7:20 pm73 °FPassing clouds.6 mph47%29.92 "HgN/A
6:50 pm73 °FPassing clouds.8 mph44%29.95 "HgN/A
6:20 pm75 °FSunny.8 mph41%29.95 "Hg10 mi
5:50 pm77 °FSunny.10 mph42%29.95 "Hg10 mi
5:20 pm75 °FPassing clouds.8 mph41%29.98 "HgN/A
4:50 pm77 °FPassing clouds.9 mph39%29.98 "HgN/A
4:20 pm75 °FPassing clouds.8 mph41%29.98 "HgN/A
3:50 pm75 °FPassing clouds.7 mph44%30.01 "HgN/A
3:20 pm73 °FPassing clouds.6 mph50%30.01 "HgN/A
2:50 pm75 °FPassing clouds.7 mph47%30.01 "HgN/A
2:20 pm73 °FPassing clouds.7 mph50%30.01 "HgN/A
1:50 pm72 °FSunny.6 mph53%30.04 "Hg10 mi
1:20 pm73 °FPassing clouds.6 mph50%30.04 "HgN/A
12:50 pm72 °FPassing clouds.7 mph57%30.04 "HgN/A
12:20 pm70 °FPassing clouds.8 mph57%30.07 "HgN/A
11:50 am70 °FPassing clouds.7 mph60%30.07 "HgN/A
11:20 am68 °FPassing clouds.6 mph64%30.09 "HgN/A
10:50 am68 °FPassing clouds.7 mph60%30.09 "HgN/A
10:20 am66 °FPassing clouds.7 mph64%30.09 "HgN/A
Weather by CustomWeather, © 2021

See weather overview